createdAt,value
2018-04-14T00:00:02.731Z,23.8
2018-04-14T00:00:52.873Z,23.8
2018-04-14T00:01:43.137Z,23.8
2018-04-14T00:02:33.209Z,23.8
2018-04-14T00:03:23.286Z,23.8
2018-04-14T00:04:13.340Z,23.8
2018-04-14T00:05:03.415Z,23.8
2018-04-14T00:05:53.436Z,23.8
2018-04-14T00:06:42.974Z,23.8
2018-04-14T00:07:33.298Z,23.8
2018-04-14T00:08:23.361Z,23.8
2018-04-14T00:09:13.410Z,23.8
2018-04-14T00:10:03.764Z,23.8
2018-04-14T00:10:53.879Z,23.8
2018-04-14T00:11:43.908Z,23.8
2018-04-14T00:12:33.114Z,23.8
2018-04-14T00:13:24.028Z,23.8
2018-04-14T00:14:13.519Z,23.8
2018-04-14T00:15:03.589Z,23.8
2018-04-14T00:15:54.248Z,23.8
2018-04-14T00:16:44.009Z,23.8
2018-04-14T00:17:34.335Z,23.8
2018-04-14T00:18:24.420Z,23.8
2018-04-14T00:19:14.515Z,23.8
2018-04-14T00:20:03.981Z,23.8
2018-04-14T00:20:54.301Z,23.8
2018-04-14T00:21:44.378Z,23.8
2018-04-14T00:22:34.458Z,23.8
2018-04-14T00:23:24.495Z,23.8
2018-04-14T00:24:14.860Z,23.8
2018-04-14T00:25:04.940Z,23.8
2018-04-14T00:25:54.993Z,23.8
2018-04-14T00:26:44.483Z,23.8
2018-04-14T00:27:34.275Z,23.7
2018-04-14T00:28:24.648Z,23.8
2018-04-14T00:29:15.217Z,23.7
2018-04-14T00:30:05.302Z,23.8
2018-04-14T00:30:55.341Z,23.7
2018-04-14T00:31:44.850Z,23.7
2018-04-14T00:32:35.486Z,23.7
2018-04-14T00:33:25.555Z,23.7
2018-04-14T00:34:15.612Z,23.7
2018-04-14T00:35:05.684Z,23.7
2018-04-14T00:35:55.466Z,23.7
2018-04-14T00:36:45.817Z,23.7
2018-04-14T00:37:35.571Z,23.7
2018-04-14T00:38:25.654Z,23.8
2018-04-14T00:39:15.692Z,23.7
2018-04-14T00:40:06.046Z,23.7
2018-04-14T00:40:56.112Z,23.7
2018-04-14T00:41:45.619Z,23.7
2018-04-14T00:42:36.236Z,23.7
2018-04-14T00:43:26.298Z,23.7
2018-04-14T00:44:16.373Z,23.7
2018-04-14T00:45:06.440Z,23.7
2018-04-14T00:45:56.228Z,23.7
2018-04-14T00:46:46.261Z,23.7
2018-04-14T00:47:36.330Z,23.7
2018-04-14T00:48:26.699Z,23.7
2018-04-14T00:49:16.743Z,23.7
2018-04-14T00:50:06.580Z,23.6
2018-04-14T00:50:56.597Z,23.7
2018-04-14T00:51:46.948Z,23.6
2018-04-14T00:52:36.732Z,23.7
2018-04-14T00:53:27.068Z,23.7
2018-04-14T00:54:16.301Z,23.7
2018-04-14T00:55:06.895Z,23.6
2018-04-14T00:55:56.992Z,23.7
2018-04-14T00:56:47.348Z,23.6
2018-04-14T00:57:37.393Z,23.6
2018-04-14T00:58:26.885Z,23.6
2018-04-14T00:59:17.498Z,23.6
2018-04-14T01:00:07.573Z,23.6
2018-04-14T01:00:57.634Z,23.6
2018-04-14T01:01:47.704Z,23.7
2018-04-14T01:02:37.756Z,23.6
2018-04-14T01:03:27.839Z,23.6
2018-04-14T01:04:17.897Z,23.6
2018-04-14T01:05:07.946Z,23.6
2018-04-14T01:05:57.769Z,23.6
2018-04-14T01:06:47.817Z,23.6
2018-04-14T01:07:38.177Z,23.6
2018-04-14T01:08:27.663Z,23.6
2018-04-14T01:09:18.003Z,23.6
2018-04-14T01:10:08.342Z,23.6
2018-04-14T01:10:57.853Z,23.6
2018-04-14T01:11:47.635Z,23.6
2018-04-14T01:12:38.525Z,23.6
2018-04-14T01:13:28.610Z,23.6
2018-04-14T01:14:18.652Z,23.6
2018-04-14T01:15:08.459Z,23.6
2018-04-14T01:15:58.567Z,23.6
2018-04-14T01:16:48.298Z,23.6
2018-04-14T01:17:38.910Z,23.6
2018-04-14T01:18:28.420Z,23.6
2018-04-14T01:19:18.762Z,23.6
2018-04-14T01:20:09.099Z,23.6
2018-04-14T01:20:59.174Z,23.6
2018-04-14T01:21:49.212Z,23.6
2018-04-14T01:22:39.421Z,23.6
2018-04-14T01:23:28.497Z,23.6
2018-04-14T01:24:19.438Z,23.6
2018-04-14T01:25:09.485Z,23.6
2018-04-14T01:25:59.545Z,23.6
2018-04-14T01:26:49.065Z,23.6
2018-04-14T01:27:39.405Z,23.6
2018-04-14T01:28:29.188Z,23.6
2018-04-14T01:29:19.506Z,23.6
2018-04-14T01:30:09.854Z,23.6
2018-04-14T01:30:59.930Z,23.6
2018-04-14T01:31:49.442Z,23.6
2018-04-14T01:32:39.764Z,23.6
2018-04-14T01:33:30.134Z,23.6
2018-04-14T01:34:19.902Z,23.6
2018-04-14T01:35:09.407Z,23.6
2018-04-14T01:36:00.337Z,23.6
2018-04-14T01:36:50.101Z,23.6
2018-04-14T01:37:39.909Z,23.6
2018-04-14T01:38:29.930Z,23.6
2018-04-14T01:39:19.711Z,23.6
2018-04-14T01:40:10.626Z,23.6
2018-04-14T01:41:00.416Z,23.6
2018-04-14T01:41:50.794Z,23.5
2018-04-14T01:42:40.535Z,23.5
2018-04-14T01:43:30.614Z,23.5
2018-04-14T01:44:20.929Z,23.6
2018-04-14T01:45:11.016Z,23.5
2018-04-14T01:46:01.091Z,23.6
2018-04-14T01:46:50.861Z,23.5
2018-04-14T01:47:40.900Z,23.6
2018-04-14T01:48:30.981Z,23.5
2018-04-14T01:49:21.058Z,23.5
2018-04-14T01:50:11.105Z,23.5
2018-04-14T01:51:01.178Z,23.5
2018-04-14T01:51:51.533Z,23.5
2018-04-14T01:52:41.570Z,23.5
2018-04-14T01:53:31.095Z,23.5
2018-04-14T01:54:21.711Z,23.5
2018-04-14T01:55:11.775Z,23.5
2018-04-14T01:56:01.818Z,23.5
2018-04-14T01:56:51.338Z,23.5
2018-04-14T01:57:41.393Z,23.5
2018-04-14T01:58:32.011Z,23.5
2018-04-14T01:59:22.078Z,23.5
2018-04-14T02:00:11.592Z,23.5
2018-04-14T02:01:01.949Z,23.5
2018-04-14T02:01:52.280Z,23.5
2018-04-14T02:02:41.776Z,23.5
2018-04-14T02:03:32.123Z,23.5
2018-04-14T02:04:22.187Z,23.5
2018-04-14T02:05:12.545Z,23.5
2018-04-14T02:06:02.357Z,23.4
2018-04-14T02:06:52.644Z,23.5
2018-04-14T02:07:42.150Z,23.5
2018-04-14T02:08:32.507Z,23.5
2018-04-14T02:09:22.277Z,23.4
2018-04-14T02:10:12.611Z,23.4
2018-04-14T02:11:02.410Z,23.4
2018-04-14T02:11:53.005Z,23.4
2018-04-14T02:12:43.088Z,23.4
2018-04-14T02:13:32.598Z,23.4
2018-04-14T02:14:22.931Z,23.5
2018-04-14T02:15:12.744Z,23.4
2018-04-14T02:16:02.787Z,23.4
2018-04-14T02:16:53.435Z,23.4
2018-04-14T02:17:42.892Z,23.4
2018-04-14T02:18:33.598Z,23.4
2018-04-14T02:19:23.611Z,23.4
2018-04-14T02:20:13.105Z,23.4
2018-04-14T02:21:03.461Z,23.4
2018-04-14T02:21:53.766Z,23.4
2018-04-14T02:22:43.578Z,23.4
2018-04-14T02:23:33.662Z,23.4
2018-04-14T02:24:23.998Z,23.4
2018-04-14T02:25:13.488Z,23.4
2018-04-14T02:26:04.108Z,23.4
2018-04-14T02:26:53.911Z,23.4
2018-04-14T02:27:43.943Z,23.4
2018-04-14T02:28:34.275Z,23.4
2018-04-14T02:29:23.513Z,23.4
2018-04-14T02:30:14.181Z,23.4
2018-04-14T02:31:04.509Z,23.4
2018-04-14T02:31:53.991Z,23.4
2018-04-14T02:32:44.340Z,23.4
2018-04-14T02:33:34.421Z,23.4
2018-04-14T02:34:24.457Z,23.4
2018-04-14T02:35:14.826Z,23.4
2018-04-14T02:36:04.898Z,23.4
2018-04-14T02:36:54.693Z,23.4
2018-04-14T02:37:45.015Z,23.4
2018-04-14T02:38:35.117Z,23.4
2018-04-14T02:39:24.873Z,23.4
2018-04-14T02:40:15.211Z,23.4
2018-04-14T02:41:05.262Z,23.4
2018-04-14T02:41:55.346Z,23.4
2018-04-14T02:42:45.384Z,23.4
2018-04-14T02:43:34.897Z,23.4
2018-04-14T02:44:25.569Z,23.4
2018-04-14T02:45:15.014Z,23.4
2018-04-14T02:46:05.357Z,23.4
2018-04-14T02:46:55.687Z,23.4
2018-04-14T02:47:45.788Z,23.4
2018-04-14T02:48:35.887Z,23.4
2018-04-14T02:49:25.879Z,23.4
2018-04-14T02:50:15.974Z,23.4
2018-04-14T02:51:06.046Z,23.4
2018-04-14T02:51:55.789Z,23.4
2018-04-14T02:52:46.149Z,23.4
2018-04-14T02:53:35.937Z,23.4
2018-04-14T02:54:26.003Z,23.4
2018-04-14T02:55:16.059Z,23.4
2018-04-14T02:56:06.164Z,23.4
2018-04-14T02:56:56.219Z,23.4
2018-04-14T02:57:46.239Z,23.4
2018-04-14T02:58:36.299Z,23.4
2018-04-14T02:59:26.359Z,23.4
2018-04-14T03:00:16.704Z,23.4
2018-04-14T03:01:06.773Z,23.4
2018-04-14T03:01:56.863Z,23.4
2018-04-14T03:02:46.333Z,23.4
2018-04-14T03:03:36.709Z,23.3
2018-04-14T03:04:27.045Z,23.4
2018-04-14T03:05:17.104Z,23.4
2018-04-14T03:06:06.868Z,23.4
2018-04-14T03:06:56.640Z,23.4
2018-04-14T03:07:46.729Z,23.3
2018-04-14T03:08:37.371Z,23.4
2018-04-14T03:09:26.909Z,23.3
2018-04-14T03:10:17.667Z,23.3
2018-04-14T03:11:07.260Z,23.4
2018-04-14T03:11:57.306Z,23.3
2018-04-14T03:12:47.736Z,23.3
2018-04-14T03:13:37.738Z,23.4
2018-04-14T03:14:27.806Z,23.4
2018-04-14T03:15:17.860Z,23.4
2018-04-14T03:16:07.397Z,23.3
2018-04-14T03:16:57.962Z,23.4
2018-04-14T03:17:47.810Z,23.3
2018-04-14T03:18:38.079Z,23.3
2018-04-14T03:19:28.138Z,23.4
2018-04-14T03:20:17.658Z,23.4
2018-04-14T03:21:07.717Z,23.3
2018-04-14T03:21:57.806Z,23.3
2018-04-14T03:22:48.165Z,23.3
2018-04-14T03:23:37.918Z,23.3
2018-04-14T03:24:28.530Z,23.3
2018-04-14T03:25:18.680Z,23.3
2018-04-14T03:26:08.664Z,23.3
2018-04-14T03:26:58.714Z,23.3
2018-04-14T03:27:48.492Z,23.3
2018-04-14T03:28:38.579Z,23.3
2018-04-14T03:29:28.660Z,23.3
2018-04-14T03:30:18.127Z,23.3
2018-04-14T03:31:09.063Z,23.3
2018-04-14T03:31:58.531Z,23.3
2018-04-14T03:32:48.899Z,23.3
2018-04-14T03:33:39.229Z,23.3
2018-04-14T03:34:29.032Z,23.3
2018-04-14T03:35:19.403Z,23.3
2018-04-14T03:36:09.415Z,23.3
2018-04-14T03:36:59.498Z,23.3
2018-04-14T03:37:49.550Z,23.3
2018-04-14T03:38:39.328Z,23.3
2018-04-14T03:39:29.677Z,23.3
2018-04-14T03:40:19.458Z,23.3
2018-04-14T03:41:09.253Z,23.3
2018-04-14T03:41:59.619Z,23.3
2018-04-14T03:42:49.925Z,23.3
2018-04-14T03:43:39.996Z,23.3
2018-04-14T03:44:30.061Z,23.3
2018-04-14T03:45:19.836Z,23.3
2018-04-14T03:46:10.201Z,23.3
2018-04-14T03:47:00.449Z,23.3
2018-04-14T03:47:50.043Z,23.3
2018-04-14T03:48:40.071Z,23.3
2018-04-14T03:49:30.475Z,23.3
2018-04-14T03:50:20.528Z,23.3
2018-04-14T03:51:10.275Z,23.3
2018-04-14T03:51:59.804Z,23.3
2018-04-14T03:52:50.692Z,23.3
2018-04-14T03:53:40.740Z,23.3
2018-04-14T03:54:30.574Z,23.3
2018-04-14T03:55:20.615Z,23.3
2018-04-14T03:56:10.980Z,23.3
2018-04-14T03:57:00.738Z,23.3
2018-04-14T03:57:51.073Z,23.3
2018-04-14T03:58:40.591Z,23.3
2018-04-14T03:59:31.205Z,23.3
2018-04-14T04:00:20.955Z,23.3
2018-04-14T04:01:11.042Z,23.3
2018-04-14T04:02:01.140Z,23.3
2018-04-14T04:02:51.430Z,23.3
2018-04-14T04:03:41.507Z,23.3
2018-04-14T04:04:31.582Z,23.3
2018-04-14T04:05:21.641Z,23.3
2018-04-14T04:06:11.419Z,23.3
2018-04-14T04:07:01.746Z,23.3
2018-04-14T04:07:51.835Z,23.3
2018-04-14T04:08:41.644Z,23.3
2018-04-14T04:09:31.948Z,23.3
2018-04-14T04:10:22.036Z,23.3
2018-04-14T04:11:12.065Z,23.3
2018-04-14T04:12:02.136Z,23.3
2018-04-14T04:12:52.212Z,23.3
2018-04-14T04:13:42.255Z,23.3
2018-04-14T04:14:32.081Z,23.3
2018-04-14T04:15:22.376Z,23.3
2018-04-14T04:16:12.497Z,23.3
2018-04-14T04:17:01.961Z,23.3
2018-04-14T04:17:52.311Z,23.3
2018-04-14T04:18:42.361Z,23.3
2018-04-14T04:19:32.716Z,23.3
2018-04-14T04:20:22.761Z,23.4
2018-04-14T04:21:12.859Z,23.4
2018-04-14T04:22:02.901Z,23.4
2018-04-14T04:22:52.958Z,23.4
2018-04-14T04:23:42.762Z,23.5
2018-04-14T04:24:32.507Z,23.5
2018-04-14T04:25:23.151Z,23.5
2018-04-14T04:26:13.214Z,23.5
2018-04-14T04:27:03.275Z,23.5
2018-04-14T04:27:52.781Z,23.4
2018-04-14T04:28:43.123Z,23.4
2018-04-14T04:29:33.475Z,23.4
2018-04-14T04:30:23.243Z,23.4
2018-04-14T04:31:13.308Z,23.4
2018-04-14T04:32:03.670Z,23.4
2018-04-14T04:32:53.171Z,23.4
2018-04-14T04:33:43.515Z,23.4
2018-04-14T04:34:33.589Z,23.4
2018-04-14T04:35:23.909Z,23.4
2018-04-14T05:24:08.545Z,22.9
2018-04-14T05:24:58.825Z,22.8
2018-04-14T05:25:48.338Z,22.7
2018-04-14T05:26:38.613Z,22.6
2018-04-14T05:27:28.975Z,22.6
2018-04-14T05:28:18.462Z,22.5
2018-04-14T05:29:09.054Z,22.5
2018-04-14T05:29:59.160Z,22.4
2018-04-14T05:30:48.953Z,22.4
2018-04-14T05:31:38.990Z,22.4
2018-04-14T05:32:29.346Z,22.4
2018-04-14T05:33:19.399Z,22.4
2018-04-14T05:34:09.174Z,22.3
2018-04-14T05:34:59.587Z,22.3
2018-04-14T05:35:49.043Z,22.3
2018-04-14T05:36:39.385Z,22.2
2018-04-14T05:37:30.056Z,22.2
2018-04-14T05:38:19.782Z,22.1
2018-04-14T05:39:08.988Z,22.1
2018-04-14T05:39:59.957Z,22.1
2018-04-14T05:40:49.980Z,22.1
2018-04-14T05:41:40.063Z,22.1
2018-04-14T05:42:29.250Z,22.1
2018-04-14T05:43:20.217Z,22.1
2018-04-14T05:44:10.201Z,22
2018-04-14T05:45:00.283Z,22
2018-04-14T05:45:50.358Z,22
2018-04-14T05:46:40.124Z,22
2018-04-14T05:47:30.467Z,22
2018-04-14T05:48:19.989Z,22
2018-04-14T05:49:10.336Z,22
2018-04-14T05:50:00.656Z,22
2018-04-14T05:50:50.220Z,22
2018-04-14T05:51:40.811Z,22
2018-04-14T05:52:30.869Z,22
2018-04-14T05:53:20.674Z,22
2018-04-14T05:54:09.892Z,22
2018-04-14T05:55:00.496Z,22
2018-04-14T05:55:51.098Z,22
2018-04-14T05:56:41.178Z,22
2018-04-14T05:57:31.008Z,22
2018-04-14T05:58:21.329Z,22
2018-04-14T05:59:11.346Z,22.1
2018-04-14T06:00:01.427Z,22
2018-04-14T06:00:50.921Z,22.1
2018-04-14T06:01:41.266Z,22.1
2018-04-14T06:02:31.075Z,22.1
2018-04-14T06:03:21.688Z,22.1
2018-04-14T06:04:11.490Z,22.1
2018-04-14T06:05:01.517Z,22.1
2018-04-14T06:05:51.033Z,22.1
2018-04-14T06:06:41.964Z,22.1
2018-04-14T06:07:31.731Z,22.1
2018-04-14T06:08:22.073Z,22.1
2018-04-14T06:09:12.339Z,22.1
2018-04-14T06:10:01.923Z,22.1
2018-04-14T06:10:52.253Z,22.1
2018-04-14T06:11:42.055Z,22.1
2018-04-14T06:12:32.372Z,22.1
2018-04-14T06:13:21.885Z,22.1
2018-04-14T06:14:12.224Z,22.1
2018-04-14T06:15:02.712Z,22.1
2018-04-14T06:15:52.602Z,22.1
2018-04-14T06:16:42.415Z,22.1
2018-04-14T06:17:32.745Z,22.1
2018-04-14T06:18:22.802Z,22.1
2018-04-14T06:19:12.315Z,22.1
2018-04-14T06:20:03.003Z,22.1
2018-04-14T06:20:52.437Z,22.1
2018-04-14T06:21:42.793Z,22.2
2018-04-14T06:22:32.868Z,22.2
2018-04-14T06:23:23.179Z,22.2
2018-04-14T06:24:12.706Z,22.2
2018-04-14T06:25:03.346Z,22.2
2018-04-14T06:25:53.384Z,22.2
2018-04-14T06:26:43.456Z,22.2
2018-04-14T06:27:33.509Z,22.2
2018-04-14T06:28:23.561Z,22.3
2018-04-14T06:29:13.107Z,22.2
2018-04-14T06:30:03.687Z,22.3
2018-04-14T06:30:53.797Z,22.3
2018-04-14T06:31:43.826Z,22.3
2018-04-14T06:32:34.010Z,22.3
2018-04-14T06:33:23.949Z,22.3
2018-04-14T06:34:13.733Z,22.3
2018-04-14T06:35:03.798Z,22.3
2018-04-14T06:35:53.609Z,22.3
2018-04-14T06:36:43.915Z,22.3
2018-04-14T06:37:34.284Z,22.3
2018-04-14T06:38:23.571Z,22.3
2018-04-14T06:39:14.133Z,22.3
2018-04-14T06:40:04.208Z,22.4
2018-04-14T06:40:54.263Z,22.3
2018-04-14T06:41:44.094Z,22.4
2018-04-14T06:42:34.173Z,22.4
2018-04-14T06:43:24.699Z,22.4
2018-04-14T06:44:14.507Z,22.4
2018-04-14T06:45:04.337Z,22.4
2018-04-14T06:45:54.889Z,22.4
2018-04-14T06:46:44.959Z,22.4
2018-04-14T06:47:34.472Z,22.7
2018-04-14T06:48:25.090Z,25.5
2018-04-14T06:49:14.579Z,41.1
2018-04-14T06:50:04.722Z,51.7
2018-04-14T06:50:54.131Z,53.7
2018-04-14T06:51:45.380Z,53.7
2018-04-14T06:52:35.387Z,51.8
2018-04-14T06:53:25.449Z,48.2
2018-04-14T06:54:14.682Z,47.3
2018-04-14T06:55:04.832Z,47.2
2018-04-14T06:55:55.881Z,47.2
2018-04-14T06:56:45.167Z,46.9
2018-04-14T06:57:35.792Z,46.6
2018-04-14T06:58:25.849Z,46.2
2018-04-14T06:59:15.935Z,45.8
2018-04-14T07:00:05.416Z,45.3
2018-04-14T07:00:55.746Z,44.9
2018-04-14T07:01:46.109Z,44.4
2018-04-14T07:02:35.909Z,44
2018-04-14T07:03:26.242Z,43.6
2018-04-14T07:04:16.288Z,43.1
2018-04-14T07:05:06.377Z,46.2
2018-04-14T07:05:56.157Z,49.1
2018-04-14T07:06:45.928Z,55.3
2018-04-14T07:07:36.061Z,57.9
2018-04-14T07:08:26.621Z,57.9
2018-04-14T07:09:16.411Z,55.6
2018-04-14T07:10:06.456Z,51.2
2018-04-14T07:10:56.813Z,49.2
2018-04-14T07:11:46.304Z,48.8
2018-04-14T07:12:36.933Z,48.6
2018-04-14T07:13:27.031Z,48.3
2018-04-14T07:14:16.541Z,48
2018-04-14T07:15:06.071Z,47.6
2018-04-14T07:15:57.201Z,47.2
2018-04-14T07:16:47.271Z,47.1
2018-04-14T07:17:37.070Z,50.8
2018-04-14T07:18:27.098Z,52.8
2018-04-14T07:19:17.188Z,57.6
2018-04-14T07:20:07.014Z,57.9
2018-04-14T07:20:56.716Z,55.7
2018-04-14T07:21:47.443Z,54.4
2018-04-14T07:22:37.451Z,53.6
2018-04-14T07:23:27.770Z,51.8
2018-04-14T07:24:17.850Z,49.4
2018-04-14T07:25:07.897Z,48.6
2018-04-14T07:25:57.698Z,48.5
2018-04-14T07:26:48.300Z,48.5
2018-04-14T07:27:37.525Z,48.4
2018-04-14T07:28:28.192Z,48.2
2018-04-14T07:29:18.200Z,48.9
2018-04-14T07:30:08.279Z,50
2018-04-14T07:30:58.383Z,53.8
2018-04-14T07:31:48.435Z,58.4
2018-04-14T07:32:37.913Z,58.1
2018-04-14T07:33:28.539Z,56.6
2018-04-14T07:34:18.584Z,55.3
2018-04-14T07:35:08.710Z,54.3
2018-04-14T07:35:58.159Z,53.5
2018-04-14T07:36:48.637Z,52.7
2018-04-14T07:37:39.065Z,51.1
2018-04-14T07:38:28.651Z,49.6
2018-04-14T07:39:18.230Z,49.1
2018-04-14T07:40:08.767Z,48.8
2018-04-14T07:40:58.264Z,48.7
2018-04-14T07:41:48.623Z,50.4
2018-04-14T07:43:29.019Z,57.4
2018-04-14T07:44:18.526Z,59.4
2018-04-14T07:45:09.443Z,58.4
2018-04-14T07:45:58.946Z,57.5
2018-04-14T07:46:49.299Z,56.1
2018-04-14T07:47:39.622Z,54.6
2018-04-14T07:48:29.428Z,53.6
2018-04-14T07:49:19.734Z,52.8
2018-04-14T07:50:09.261Z,52
2018-04-14T07:50:59.906Z,51
2018-04-14T07:51:49.682Z,50
2018-04-14T07:52:40.024Z,49.4
2018-04-14T07:53:30.077Z,50.3
2018-04-14T07:54:20.145Z,50.7
2018-04-14T07:55:10.201Z,55.3
2018-04-14T07:56:00.325Z,59.5
2018-04-14T07:56:50.340Z,59.5
2018-04-14T07:57:39.875Z,58.9
2018-04-14T07:58:29.915Z,58
2018-04-14T07:59:20.260Z,56.3
2018-04-14T08:00:10.320Z,54.6
2018-04-14T08:01:00.121Z,53.3
2018-04-14T08:01:50.755Z,52.6
2018-04-14T08:02:40.827Z,52.6
2018-04-14T08:03:30.831Z,52.9
2018-04-14T08:04:20.651Z,53.4
2018-04-14T08:05:10.114Z,53.8
2018-04-14T08:06:00.778Z,54
2018-04-14T08:06:50.841Z,53.9
2018-04-14T08:07:41.181Z,53.8
2018-04-14T08:08:30.981Z,53.5
2018-04-14T08:09:21.338Z,53.2
2018-04-14T08:10:11.097Z,53
2018-04-14T08:11:01.175Z,52.9
2018-04-14T08:11:51.202Z,53
2018-04-14T08:12:41.260Z,53.1
2018-04-14T08:13:31.643Z,53.3
2018-04-14T08:14:21.686Z,53.3
2018-04-14T08:15:10.913Z,53.4
2018-04-14T08:16:01.837Z,53.4
2018-04-14T08:16:51.318Z,53.4
2018-04-14T08:17:41.987Z,53.4
2018-04-14T08:18:32.044Z,53.4
2018-04-14T08:19:21.828Z,53.5
2018-04-14T08:20:11.850Z,53.5
2018-04-14T08:21:02.217Z,53.6
2018-04-14T08:21:52.015Z,53.7
2018-04-14T08:22:42.320Z,53.8
2018-04-14T08:23:32.143Z,53.8
2018-04-14T08:24:22.162Z,53.9
2018-04-14T08:25:12.545Z,53.9
2018-04-14T08:26:02.331Z,54
2018-04-14T08:26:52.376Z,54.1
2018-04-14T08:27:42.687Z,54.3
2018-04-14T08:28:32.785Z,54.4
2018-04-14T08:29:22.566Z,54.5
2018-04-14T08:30:12.900Z,54.6
2018-04-14T08:31:02.968Z,54.8
2018-04-14T08:31:52.736Z,54.9
2018-04-14T08:32:42.819Z,54.9
2018-04-14T08:33:32.866Z,55
2018-04-14T08:34:22.936Z,55.1
2018-04-14T08:35:13.380Z,55.2
2018-04-14T08:36:03.328Z,55.2
2018-04-14T08:36:52.576Z,55.2
2018-04-14T08:37:43.173Z,55.3
2018-04-14T08:38:33.550Z,55.4
2018-04-14T08:39:23.126Z,55.4
2018-04-14T08:40:13.673Z,55.6
2018-04-14T08:41:03.463Z,55.6
2018-04-14T08:41:53.224Z,55.8
2018-04-14T08:42:43.855Z,55.9
2018-04-14T08:43:33.377Z,56
2018-04-14T08:44:24.001Z,56.2
2018-04-14T08:45:13.292Z,56.4
2018-04-14T08:46:03.364Z,56.4
2018-04-14T08:46:54.179Z,56.5
2018-04-14T08:47:44.237Z,56.5
2018-04-14T08:48:34.324Z,56.6
2018-04-14T08:49:24.394Z,56.7
2018-04-14T08:50:13.866Z,56.9
2018-04-14T08:51:04.541Z,56.9
2018-04-14T08:51:54.296Z,57.1
2018-04-14T08:52:44.354Z,57.2
2018-04-14T08:53:34.694Z,57.3
2018-04-14T08:54:24.737Z,57.4
2018-04-14T08:55:14.870Z,57.5
2018-04-14T08:56:04.608Z,57.6
2018-04-14T08:56:54.397Z,57.7
2018-04-14T08:57:44.715Z,57.8
2018-04-14T08:58:35.065Z,57.8
2018-04-14T09:00:15.237Z,57.8
2018-04-14T09:01:04.998Z,57.9
2018-04-14T09:01:55.188Z,58.1
2018-04-14T09:02:45.415Z,58.2
2018-04-14T09:03:34.914Z,58.3
2018-04-14T09:04:25.001Z,58.4
2018-04-14T09:06:05.664Z,58.7
2018-04-14T09:06:55.720Z,58.8
2018-04-14T09:07:45.520Z,58.8
2018-04-14T09:08:35.287Z,58.9
2018-04-14T09:09:25.652Z,59
2018-04-14T09:10:15.432Z,59.1
2018-04-14T09:11:05.788Z,59.2
2018-04-14T09:11:55.840Z,59.3
2018-04-14T09:12:46.152Z,59.4
2018-04-14T09:13:35.950Z,59.5
2018-04-14T09:14:26.323Z,59.6
2018-04-14T09:15:16.397Z,59.8
2018-04-14T09:16:06.385Z,59.9
2018-04-14T09:16:56.236Z,59.9
2018-04-14T09:17:46.276Z,60
2018-04-14T09:18:36.357Z,60.1
2018-04-14T09:19:25.698Z,60.2
2018-04-14T09:20:16.736Z,60.2
2018-04-14T09:21:06.559Z,60.3
2018-04-14T09:21:56.321Z,60.4
2018-04-14T09:22:46.417Z,60.4
2018-04-14T09:23:36.776Z,60.6
2018-04-14T09:24:26.821Z,60.6
2018-04-14T09:25:16.849Z,60.7
2018-04-14T09:26:07.220Z,60.8
2018-04-14T09:26:57.006Z,60.9
2018-04-14T09:27:47.339Z,61
2018-04-14T09:28:37.174Z,61
2018-04-14T09:29:26.932Z,61.1
2018-04-14T09:30:17.249Z,61.2
2018-04-14T09:31:07.331Z,61.3
2018-04-14T09:31:57.668Z,61.3
2018-04-14T09:32:47.744Z,61.4
2018-04-14T09:33:37.546Z,61.4
2018-04-14T09:34:27.884Z,61.5
2018-04-14T09:35:17.945Z,61.6
2018-04-14T09:36:07.992Z,61.6
2018-04-14T09:36:57.860Z,61.8
2018-04-14T09:37:48.147Z,61.9
2018-04-14T09:38:38.195Z,62
2018-04-14T09:39:27.432Z,62.1
2018-04-14T09:40:18.034Z,62.3
2018-04-14T09:41:08.098Z,62.4
2018-04-14T09:41:58.197Z,62.5
2018-04-14T09:42:48.232Z,62.6
2018-04-14T09:43:38.032Z,62.7
2018-04-14T09:44:28.367Z,62.8
2018-04-14T09:45:18.440Z,62.8
2018-04-14T09:46:08.777Z,62.8
2018-04-14T09:46:58.850Z,62.8
2018-04-14T09:47:48.906Z,62.9
2018-04-14T09:48:38.425Z,62.9
2018-04-14T09:49:28.748Z,63.1
2018-04-14T09:50:19.103Z,63.2
2018-04-14T09:51:08.672Z,63.3
2018-04-14T09:51:58.935Z,63.4
2018-04-14T09:52:49.303Z,63.4
2018-04-14T09:53:39.069Z,63.5
2018-04-14T09:54:27.999Z,63.5
2018-04-14T09:55:19.489Z,63.5
2018-04-14T09:56:09.277Z,63.5
2018-04-14T09:56:59.329Z,63.6
2018-04-14T09:57:49.697Z,63.6
2018-04-14T09:58:39.754Z,63.6
2018-04-14T09:59:29.269Z,63.6
2018-04-14T10:00:19.319Z,63.7
2018-04-14T10:01:09.957Z,63.8
2018-04-14T10:02:00.020Z,63.8
2018-04-14T10:02:50.074Z,63.8
2018-04-14T10:03:39.851Z,63.8
2018-04-14T10:04:29.931Z,63.9
2018-04-14T10:05:19.714Z,63.9
2018-04-14T10:06:10.331Z,64
2018-04-14T10:07:00.391Z,64.1
2018-04-14T10:07:50.266Z,64.2
2018-04-14T10:08:40.533Z,64.3
2018-04-14T10:09:30.304Z,64.3
2018-04-14T10:10:20.183Z,64.3
2018-04-14T10:11:10.144Z,64.3
2018-04-14T10:12:00.773Z,64.3
2018-04-14T10:12:50.594Z,64.4
2018-04-14T10:13:40.634Z,64.5
2018-04-14T10:14:30.742Z,64.6
2018-04-14T10:15:20.752Z,64.6
2018-04-14T10:16:10.882Z,64.8
2018-04-14T10:17:00.915Z,64.9
2018-04-14T10:17:50.934Z,65
2018-04-14T10:18:41.050Z,65.1
2018-04-14T10:19:30.799Z,65.1
2018-04-14T10:20:21.145Z,65.1
2018-04-14T10:21:11.516Z,65.1
2018-04-14T10:22:01.263Z,65.2
2018-04-14T10:22:51.335Z,65.3
2018-04-14T10:23:41.672Z,65.4
2018-04-14T10:24:31.745Z,65.5
2018-04-14T10:25:21.538Z,65.6
2018-04-14T10:26:11.925Z,65.6
2018-04-14T10:27:02.194Z,65.6
2018-04-14T10:27:51.733Z,65.7
2018-04-14T10:28:42.069Z,65.8
2018-04-14T10:29:31.853Z,65.8
2018-04-14T10:30:22.249Z,65.9
2018-04-14T10:31:12.296Z,66
2018-04-14T10:32:01.774Z,66
2018-04-14T10:32:51.939Z,66.1
2018-04-14T10:33:42.189Z,66.1
2018-04-14T10:34:32.521Z,66.1
2018-04-14T10:35:22.323Z,66.1
2018-04-14T10:36:12.386Z,66.2
2018-04-14T10:37:02.716Z,66.2
2018-04-14T10:37:53.480Z,66.3
2018-04-14T10:38:42.856Z,66.3
2018-04-14T10:39:32.689Z,66.3
2018-04-14T10:40:22.426Z,66.4
2018-04-14T10:41:12.780Z,66.4
2018-04-14T10:42:03.137Z,66.4
2018-04-14T10:42:52.889Z,66.5
2018-04-14T10:43:43.267Z,66.4
2018-04-14T10:44:33.297Z,66.4
2018-04-14T10:45:23.425Z,66.4
2018-04-14T10:46:13.448Z,66.4
2018-04-14T10:47:02.978Z,66.4
2018-04-14T10:47:53.050Z,66.4
2018-04-14T10:48:43.353Z,66.5
2018-04-14T10:49:33.423Z,66.4
2018-04-14T10:50:23.484Z,66.4
2018-04-14T10:51:13.278Z,66.4
2018-04-14T10:52:03.616Z,66.3
2018-04-14T10:52:53.386Z,66.3
2018-04-14T10:53:43.774Z,66.4
2018-04-14T10:54:33.519Z,66.3
2018-04-14T10:55:24.156Z,66.3
2018-04-14T10:56:13.920Z,66.4
2018-04-14T10:57:04.006Z,66.4
2018-04-14T10:57:54.089Z,66.5
2018-04-14T10:58:43.683Z,66.5
2018-04-14T10:59:34.516Z,66.6
2018-04-14T11:00:24.544Z,66.5
2018-04-14T11:01:13.875Z,66.5
2018-04-14T11:02:04.423Z,66.4
2018-04-14T11:02:53.983Z,66.5
2018-04-14T11:03:44.803Z,66.5
2018-04-14T11:04:34.864Z,66.6
2018-04-14T11:05:24.943Z,66.6
2018-04-14T11:06:14.148Z,66.6
2018-04-14T11:07:05.043Z,66.6
2018-04-14T11:07:55.145Z,66.6
2018-04-14T11:08:45.223Z,66.6
2018-04-14T11:09:34.703Z,66.6
2018-04-14T11:10:25.091Z,66.6
2018-04-14T11:11:15.121Z,66.6
2018-04-14T11:12:05.473Z,66.6
2018-04-14T11:12:55.510Z,66.6
2018-04-14T11:13:45.036Z,66.6
2018-04-14T11:14:35.668Z,66.6
2018-04-14T11:15:25.435Z,66.6
2018-04-14T11:16:15.218Z,66.5
2018-04-14T11:17:05.853Z,66.6
2018-04-14T11:17:55.655Z,66.7
2018-04-14T11:18:45.984Z,66.8
2018-04-14T11:19:35.474Z,66.8
2018-04-14T11:20:26.095Z,66.8
2018-04-14T11:21:15.341Z,66.8
2018-04-14T11:22:05.687Z,66.8
2018-04-14T11:22:56.293Z,66.8
2018-04-14T11:23:46.084Z,66.8
2018-04-14T11:24:36.437Z,66.8
2018-04-14T11:25:25.927Z,66.8
2018-04-14T11:26:16.006Z,66.8
2018-04-14T11:27:06.635Z,66.8
2018-04-14T11:27:56.691Z,66.8
2018-04-14T11:28:46.479Z,66.8
2018-04-14T11:29:36.554Z,66.8
2018-04-14T11:30:26.912Z,66.9
2018-04-14T11:31:17.267Z,66.9
2018-04-14T11:32:07.022Z,66.9
2018-04-14T11:32:56.514Z,66.9
2018-04-14T11:33:47.157Z,66.8
2018-04-14T11:34:37.236Z,66.8
2018-04-14T11:35:27.284Z,66.7
2018-04-14T11:36:16.781Z,66.6
2018-04-14T11:37:06.917Z,66.5
2018-04-14T11:37:57.544Z,66.4
2018-04-14T11:38:47.536Z,66.4
2018-04-14T11:39:52.278Z,66.4
2018-04-14T11:40:27.681Z,66.4
2018-04-14T11:41:17.464Z,66.5
2018-04-14T11:42:07.501Z,66.5
2018-04-14T11:42:57.324Z,66.4
2018-04-14T11:43:47.923Z,66.4
2018-04-14T11:44:38.001Z,66.4
2018-04-14T11:45:27.208Z,66.4
2018-04-14T11:46:17.865Z,66.5
2018-04-14T11:47:07.371Z,66.5
2018-04-14T11:47:58.245Z,66.6
2018-04-14T11:48:48.327Z,66.6
2018-04-14T11:49:38.393Z,66.6
2018-04-14T11:50:28.159Z,66.7
2018-04-14T11:51:17.947Z,66.7
2018-04-14T11:52:08.569Z,66.6
2018-04-14T11:52:58.334Z,66.6
2018-04-14T11:53:48.410Z,66.4
2018-04-14T11:54:38.773Z,66.3
2018-04-14T11:55:28.552Z,66.3
2018-04-14T11:56:18.904Z,66.3
2018-04-14T11:57:08.749Z,66.3
2018-04-14T11:57:58.755Z,66.3
2018-04-14T11:58:49.117Z,66.4